createdAt,value
2022-10-25T00:00:47.772Z,8.00
2022-10-25T00:03:16.045Z,7.03
2022-10-25T00:05:44.541Z,4.73
2022-10-25T00:08:13.122Z,8.17
2022-10-25T00:10:41.225Z,7.60
2022-10-25T00:13:10.886Z,5.40
2022-10-25T00:15:39.818Z,8.07
2022-10-25T00:18:07.893Z,5.30
2022-10-25T00:20:38.281Z,9.10
2022-10-25T00:23:06.672Z,12.97
2022-10-25T00:25:34.754Z,9.57
2022-10-25T00:28:03.013Z,7.40
2022-10-25T00:30:32.673Z,7.47
2022-10-25T00:33:01.318Z,7.70
2022-10-25T00:35:29.590Z,8.37
2022-10-25T00:37:57.726Z,8.47
2022-10-25T00:40:25.849Z,8.03
2022-10-25T00:42:54.089Z,8.20
2022-10-25T00:45:25.222Z,10.73
2022-10-25T00:47:58.889Z,8.33
2022-10-25T00:50:43.840Z,8.90
2022-10-25T00:53:16.416Z,9.40
2022-10-25T00:55:49.968Z,7.30
2022-10-25T00:58:21.908Z,8.17
2022-10-25T01:00:50.669Z,7.17
2022-10-25T01:03:23.978Z,13.53
2022-10-25T01:05:54.996Z,14.07
2022-10-25T01:08:23.901Z,10.27
2022-10-25T01:10:51.971Z,9.30
2022-10-25T01:13:20.342Z,11.60
2022-10-25T01:16:00.964Z,11.73
2022-10-25T01:18:37.064Z,14.13
2022-10-25T01:21:38.934Z,16.83
2022-10-25T01:24:22.499Z,22.00
2022-10-25T01:27:12.574Z,23.13
2022-10-25T01:30:15.679Z,24.63
2022-10-25T01:32:55.077Z,24.00
2022-10-25T01:35:29.337Z,33.80
2022-10-25T01:38:09.294Z,37.87
2022-10-25T01:40:45.455Z,21.43
2022-10-25T01:43:21.597Z,43.57
2022-10-25T01:45:59.409Z,58.43
2022-10-25T01:48:33.377Z,44.87
2022-10-25T01:51:10.006Z,49.03
2022-10-25T01:53:49.074Z,54.50
2022-10-25T01:56:23.285Z,58.33
2022-10-25T01:59:15.191Z,62.63
2022-10-25T02:01:56.273Z,61.93
2022-10-25T02:04:34.517Z,103.60
2022-10-25T02:07:08.006Z,73.77
2022-10-25T02:09:44.909Z,80.90
2022-10-25T02:12:19.413Z,89.00
2022-10-25T02:14:53.246Z,91.20
2022-10-25T02:17:24.177Z,106.90
2022-10-25T02:19:57.791Z,91.13
2022-10-25T02:22:30.568Z,111.53
2022-10-25T02:24:59.415Z,105.33
2022-10-25T02:27:29.002Z,97.13
2022-10-25T02:29:58.217Z,98.30
2022-10-25T02:32:26.617Z,129.30
2022-10-25T02:34:56.121Z,105.90
2022-10-25T02:37:24.403Z,109.27
2022-10-25T02:39:52.934Z,107.47
2022-10-25T02:42:21.009Z,81.20
2022-10-25T02:44:49.241Z,79.03
2022-10-25T02:47:17.391Z,85.10
2022-10-25T02:49:45.465Z,77.47
2022-10-25T02:52:15.005Z,85.03
2022-10-25T02:54:43.235Z,80.93
2022-10-25T02:57:11.435Z,68.70
2022-10-25T02:59:39.804Z,100.47
2022-10-25T03:02:08.031Z,52.53
2022-10-25T03:04:36.173Z,53.90
2022-10-25T03:07:04.363Z,48.30
2022-10-25T03:09:33.932Z,45.73
2022-10-25T03:12:01.999Z,41.83
2022-10-25T03:14:30.206Z,40.00
2022-10-25T03:16:58.491Z,38.70
2022-10-25T03:19:26.573Z,42.13
2022-10-25T03:21:54.787Z,37.07
2022-10-25T03:24:22.967Z,46.33
2022-10-25T03:26:52.536Z,47.97
2022-10-25T03:29:21.145Z,44.60
2022-10-25T03:31:49.330Z,42.13
2022-10-25T03:34:17.418Z,43.57
2022-10-25T03:36:45.658Z,46.30
2022-10-25T03:39:13.922Z,53.77
2022-10-25T03:41:42.040Z,44.43
2022-10-25T03:44:11.662Z,41.73
2022-10-25T03:46:39.866Z,50.67
2022-10-25T03:49:07.988Z,37.40
2022-10-25T03:51:36.171Z,46.80
2022-10-25T03:54:04.646Z,47.23
2022-10-25T03:56:32.877Z,46.63
2022-10-25T03:59:01.153Z,48.30
2022-10-25T04:01:30.882Z,39.30
2022-10-25T04:03:59.179Z,35.43
2022-10-25T04:06:27.485Z,34.57
2022-10-25T04:08:55.604Z,37.43
2022-10-25T04:11:23.782Z,43.93
2022-10-25T04:13:51.994Z,36.27
2022-10-25T04:16:20.121Z,31.77
2022-10-25T04:18:51.489Z,36.50
2022-10-25T04:21:19.738Z,37.70
2022-10-25T04:23:47.862Z,34.63
2022-10-25T04:26:18.381Z,36.63
2022-10-25T04:28:50.060Z,37.50
2022-10-25T04:31:18.394Z,51.57
2022-10-25T04:33:51.029Z,40.43
2022-10-25T04:36:19.437Z,41.10
2022-10-25T04:38:49.237Z,33.60
2022-10-25T04:41:17.772Z,46.17
2022-10-25T04:43:46.161Z,35.47
2022-10-25T04:46:14.597Z,46.40
2022-10-25T04:48:43.596Z,49.30
2022-10-25T04:51:14.117Z,52.73
2022-10-25T04:53:42.354Z,48.03
2022-10-25T04:56:12.956Z,56.13
2022-10-25T04:58:41.882Z,45.77
2022-10-25T05:01:12.091Z,49.70
2022-10-25T05:03:40.669Z,53.27
2022-10-25T05:06:10.646Z,49.50
2022-10-25T05:08:41.282Z,54.90
2022-10-25T05:11:10.273Z,45.50
2022-10-25T05:13:40.272Z,59.60
2022-10-25T05:16:08.729Z,42.37
2022-10-25T05:18:36.797Z,51.60
2022-10-25T05:21:07.282Z,45.80
2022-10-25T05:23:36.007Z,53.50
2022-10-25T05:26:08.011Z,80.33
2022-10-25T05:28:37.420Z,66.03
2022-10-25T05:31:06.143Z,60.87
2022-10-25T05:33:35.213Z,64.83
2022-10-25T05:36:04.588Z,74.03
2022-10-25T05:38:36.976Z,57.97
2022-10-25T05:41:08.672Z,94.63
2022-10-25T05:43:36.800Z,66.27
2022-10-25T05:46:07.522Z,79.23
2022-10-25T05:48:37.462Z,60.13
2022-10-25T05:51:28.968Z,74.40
2022-10-25T05:54:03.132Z,60.20
2022-10-25T05:56:33.868Z,56.47
2022-10-25T05:59:03.709Z,60.43
2022-10-25T06:01:31.943Z,44.87
2022-10-25T06:04:00.159Z,73.70
2022-10-25T06:06:28.442Z,47.33
2022-10-25T06:08:58.398Z,44.50
2022-10-25T06:11:27.914Z,51.87
2022-10-25T06:13:57.470Z,50.83
2022-10-25T06:16:26.185Z,39.70
2022-10-25T06:18:55.102Z,40.60
2022-10-25T06:21:25.749Z,40.97
2022-10-25T06:23:54.291Z,34.77
2022-10-25T06:26:24.125Z,37.53
2022-10-25T06:28:54.814Z,35.37
2022-10-25T06:31:24.695Z,33.37
2022-10-25T06:33:53.238Z,31.80
2022-10-25T06:36:23.526Z,37.10
2022-10-25T06:38:52.434Z,34.10
2022-10-25T06:41:22.525Z,34.53
2022-10-25T06:43:51.475Z,37.90
2022-10-25T06:46:24.389Z,33.80
2022-10-25T06:48:53.867Z,30.67
2022-10-25T06:51:22.877Z,32.13
2022-10-25T06:53:55.190Z,37.63
2022-10-25T06:56:23.915Z,37.80
2022-10-25T06:58:52.280Z,41.50
2022-10-25T07:01:23.734Z,32.30
2022-10-25T07:03:53.835Z,31.33
2022-10-25T07:06:24.864Z,35.87
2022-10-25T07:08:55.505Z,37.33
2022-10-25T07:11:24.893Z,35.37
2022-10-25T07:13:53.289Z,36.53
2022-10-25T07:16:23.911Z,37.67
2022-10-25T07:18:52.256Z,31.20
2022-10-25T07:21:22.001Z,37.27
2022-10-25T07:23:51.912Z,34.97
2022-10-25T07:26:22.575Z,27.30
2022-10-25T07:28:52.422Z,37.97
2022-10-25T07:31:22.245Z,36.17
2022-10-25T07:33:53.713Z,36.17
2022-10-25T07:36:22.439Z,30.23
2022-10-25T07:38:50.520Z,36.13
2022-10-25T07:41:18.830Z,29.77
2022-10-25T07:43:47.013Z,34.80
2022-10-25T07:46:15.205Z,31.50
2022-10-25T07:48:43.457Z,33.87
2022-10-25T07:51:14.685Z,40.47
2022-10-25T07:53:43.023Z,33.20
2022-10-25T07:56:17.498Z,37.73
2022-10-25T07:58:48.714Z,34.57
2022-10-25T08:01:21.242Z,39.80
2022-10-25T08:03:49.422Z,33.93
2022-10-25T08:06:19.310Z,38.00
2022-10-25T08:08:47.994Z,45.20
2022-10-25T08:11:16.169Z,45.90
2022-10-25T08:13:44.366Z,39.63
2022-10-25T08:16:12.631Z,43.97
2022-10-25T08:18:40.717Z,48.00
2022-10-25T08:21:08.942Z,44.77
2022-10-25T08:23:38.513Z,44.47
2022-10-25T08:26:06.862Z,39.67
2022-10-25T08:28:35.358Z,36.13
2022-10-25T08:31:04.648Z,42.70
2022-10-25T08:33:34.081Z,38.40
2022-10-25T08:36:02.413Z,34.30
2022-10-25T08:38:31.226Z,40.87
2022-10-25T08:41:07.216Z,29.43
2022-10-25T08:44:09.441Z,27.00
2022-10-25T08:46:42.021Z,27.03
2022-10-25T08:49:20.767Z,27.67
2022-10-25T08:51:50.960Z,24.57
2022-10-25T08:54:27.971Z,18.77
2022-10-25T08:57:20.667Z,28.50
2022-10-25T08:59:51.636Z,21.27
2022-10-25T09:02:26.404Z,20.53
2022-10-25T09:04:55.721Z,20.57
2022-10-25T09:07:49.890Z,23.83
2022-10-25T09:10:30.753Z,20.27
2022-10-25T09:13:10.888Z,19.67
2022-10-25T09:15:53.901Z,19.30
2022-10-25T09:18:29.833Z,19.10
2022-10-25T09:20:59.228Z,21.27
2022-10-25T09:23:30.850Z,18.73
2022-10-25T09:26:05.182Z,27.77
2022-10-25T09:28:51.703Z,17.57
2022-10-25T09:31:24.392Z,16.57
2022-10-25T09:34:01.520Z,18.53
2022-10-25T09:36:39.325Z,15.47
2022-10-25T09:39:16.149Z,19.27
2022-10-25T09:41:47.369Z,17.37
2022-10-25T09:44:27.170Z,14.00
2022-10-25T09:46:58.898Z,19.40
2022-10-25T09:49:35.092Z,17.43
2022-10-25T09:52:11.426Z,18.87
2022-10-25T09:54:45.787Z,18.20
2022-10-25T09:57:14.241Z,24.70
2022-10-25T09:59:44.274Z,28.10
2022-10-25T10:02:19.281Z,19.83
2022-10-25T10:04:47.501Z,27.23
2022-10-25T10:07:21.294Z,18.90
2022-10-25T10:09:51.222Z,23.07
2022-10-25T10:12:27.070Z,17.47
2022-10-25T10:15:01.882Z,22.67
2022-10-25T10:17:32.034Z,15.47
2022-10-25T10:20:10.392Z,18.80
2022-10-25T10:22:45.489Z,26.63
2022-10-25T10:25:18.875Z,19.33
2022-10-25T10:27:50.486Z,15.50
2022-10-25T10:30:29.180Z,21.97
2022-10-25T10:33:00.383Z,18.40
2022-10-25T10:35:33.750Z,15.23
2022-10-25T10:38:24.516Z,25.53
2022-10-25T10:40:54.677Z,18.70
2022-10-25T10:43:31.547Z,24.70
2022-10-25T10:46:05.480Z,18.37
2022-10-25T10:48:41.814Z,15.57
2022-10-25T10:51:25.556Z,21.00
2022-10-25T10:54:14.794Z,18.90
2022-10-25T10:56:42.870Z,24.47
2022-10-25T10:59:30.837Z,17.67
2022-10-25T11:02:13.137Z,18.33
2022-10-25T11:04:51.880Z,18.93
2022-10-25T11:07:31.296Z,17.00
2022-10-25T11:10:33.370Z,18.00
2022-10-25T11:13:16.556Z,25.30
2022-10-25T11:16:12.949Z,12.87
2022-10-25T11:18:51.209Z,19.13
2022-10-25T11:21:39.367Z,13.33
2022-10-25T11:24:15.865Z,10.67
2022-10-25T11:26:54.828Z,14.73
2022-10-25T11:29:42.593Z,13.10
2022-10-25T11:35:36.631Z,13.97
2022-10-25T11:38:12.987Z,10.00
2022-10-25T11:40:42.369Z,12.43
2022-10-25T11:43:30.854Z,14.00
2022-10-25T11:46:04.046Z,15.03
2022-10-25T11:48:48.212Z,15.43
2022-10-25T11:51:28.698Z,15.10
2022-10-25T11:54:20.627Z,9.93
2022-10-25T11:56:56.765Z,11.37
2022-10-25T11:59:34.382Z,16.03
2022-10-25T12:02:21.002Z,13.63
2022-10-25T12:04:58.022Z,12.33
2022-10-25T12:07:34.981Z,14.57
2022-10-25T12:10:16.293Z,16.07
2022-10-25T12:12:49.663Z,21.13
2022-10-25T12:15:24.448Z,16.77
2022-10-25T12:17:54.076Z,19.87
2022-10-25T12:20:26.510Z,19.33
2022-10-25T12:22:59.789Z,17.40
2022-10-25T12:25:31.308Z,20.00
2022-10-25T12:28:07.643Z,15.77
2022-10-25T12:30:36.927Z,14.23
2022-10-25T12:33:13.685Z,13.90
2022-10-25T12:35:48.610Z,18.50
2022-10-25T12:38:25.527Z,16.23
2022-10-25T12:41:06.220Z,16.93
2022-10-25T12:43:39.326Z,10.77
2022-10-25T12:46:45.857Z,19.67
2022-10-25T12:49:37.236Z,15.10
2022-10-25T12:52:19.805Z,15.77
2022-10-25T12:55:03.773Z,13.23
2022-10-25T12:57:37.512Z,18.70
2022-10-25T13:00:12.204Z,12.70
2022-10-25T13:03:22.330Z,19.13
2022-10-25T13:06:09.454Z,12.87
2022-10-25T13:08:41.329Z,15.27
2022-10-25T13:11:11.780Z,13.10
2022-10-25T13:13:47.386Z,11.33
2022-10-25T13:16:25.490Z,15.77
2022-10-25T13:19:57.733Z,9.80
2022-10-25T13:22:35.763Z,15.67
2022-10-25T13:25:10.839Z,15.53
2022-10-25T13:27:41.977Z,15.07
2022-10-25T13:30:29.097Z,13.40
2022-10-25T13:33:29.669Z,14.97
2022-10-25T13:36:02.572Z,11.57
2022-10-25T13:38:38.070Z,14.67
2022-10-25T13:41:18.399Z,19.53
2022-10-25T13:44:08.515Z,25.13
2022-10-25T13:46:40.092Z,14.00
2022-10-25T13:49:29.697Z,15.10
2022-10-25T13:51:59.907Z,14.00
2022-10-25T13:54:38.036Z,12.73
2022-10-25T13:57:27.250Z,16.30
2022-10-25T14:00:03.775Z,12.83
2022-10-25T14:02:33.539Z,13.93
2022-10-25T14:05:01.689Z,18.27
2022-10-25T14:07:50.930Z,15.43
2022-10-25T14:10:26.761Z,26.00
2022-10-25T14:13:01.493Z,13.53
2022-10-25T14:15:42.640Z,20.30
2022-10-25T14:18:18.702Z,13.93
2022-10-25T14:20:49.044Z,18.33
2022-10-25T14:23:21.341Z,18.30
2022-10-25T14:25:56.109Z,20.97
2022-10-25T14:28:26.658Z,24.67
2022-10-25T14:30:57.844Z,21.37
2022-10-25T14:33:29.010Z,27.97
2022-10-25T14:35:59.343Z,20.27
2022-10-25T14:38:28.867Z,15.57
2022-10-25T14:40:58.914Z,25.30
2022-10-25T14:43:32.245Z,19.73
2022-10-25T14:46:04.961Z,23.07
2022-10-25T14:48:34.166Z,19.00
2022-10-25T14:51:06.640Z,24.57
2022-10-25T14:53:35.402Z,17.10
2022-10-25T14:56:06.278Z,22.87
2022-10-25T14:58:41.565Z,18.97
2022-10-25T15:01:12.853Z,18.70
2022-10-25T15:03:44.473Z,22.13
2022-10-25T15:06:14.507Z,28.67
2022-10-25T15:08:49.165Z,14.00
2022-10-25T15:11:20.865Z,25.30
2022-10-25T15:13:51.095Z,27.17
2022-10-25T15:16:35.430Z,21.77
2022-10-25T15:19:18.332Z,19.67
2022-10-25T15:21:49.062Z,33.77
2022-10-25T15:24:20.653Z,23.53
2022-10-25T15:26:57.805Z,34.17
2022-10-25T15:32:24.391Z,16.33
2022-10-25T15:34:54.189Z,24.17
2022-10-25T15:37:24.153Z,17.47
2022-10-25T15:39:54.091Z,20.23
2022-10-25T15:42:23.614Z,26.97
2022-10-25T15:44:51.727Z,26.67
2022-10-25T15:47:30.157Z,20.53
2022-10-25T15:49:58.961Z,23.70
2022-10-25T15:52:27.392Z,29.07
2022-10-25T15:54:55.637Z,28.47
2022-10-25T15:57:24.091Z,32.83
2022-10-25T15:59:52.170Z,27.73
2022-10-25T16:02:23.142Z,25.17
2022-10-25T16:04:52.778Z,30.90
2022-10-25T16:07:20.826Z,12.97
2022-10-25T16:09:49.111Z,24.70
2022-10-25T16:12:21.611Z,26.20
2022-10-25T16:14:52.138Z,30.97
2022-10-25T16:17:20.326Z,22.10
2022-10-25T16:19:48.437Z,17.80
2022-10-25T16:22:18.042Z,22.60
2022-10-25T16:24:46.234Z,21.67
2022-10-25T16:27:14.741Z,26.00
2022-10-25T16:29:43.025Z,20.37
2022-10-25T16:32:11.187Z,49.00
2022-10-25T16:34:42.466Z,26.80
2022-10-25T16:37:12.021Z,20.77
2022-10-25T16:39:41.897Z,18.30
2022-10-25T16:42:28.827Z,20.73
2022-10-25T16:44:57.032Z,33.77
2022-10-25T16:47:25.378Z,29.57
2022-10-25T16:49:53.588Z,16.33
2022-10-25T16:52:22.469Z,18.30
2022-10-25T16:54:51.981Z,19.63
2022-10-25T16:57:20.138Z,17.57
2022-10-25T16:59:48.368Z,17.87
2022-10-25T17:02:19.097Z,26.50
2022-10-25T17:04:48.535Z,15.07
2022-10-25T17:07:17.083Z,22.30
2022-10-25T17:09:45.254Z,21.23
2022-10-25T17:12:14.865Z,27.30
2022-10-25T17:14:43.113Z,18.63
2022-10-25T17:17:11.299Z,19.20
2022-10-25T17:19:39.514Z,22.57
2022-10-25T17:22:07.831Z,19.40
2022-10-25T17:24:35.992Z,18.10
2022-10-25T17:29:34.953Z,22.27
2022-10-25T17:32:03.078Z,19.43
2022-10-25T17:34:32.229Z,14.10
2022-10-25T17:37:02.278Z,15.23
2022-10-25T17:39:30.725Z,24.93
2022-10-25T17:41:58.966Z,23.20
2022-10-25T17:44:27.206Z,20.77
2022-10-25T17:46:58.475Z,17.27
2022-10-25T17:49:29.371Z,20.07
2022-10-25T17:51:57.442Z,12.90
2022-10-25T17:54:25.542Z,11.13
2022-10-25T17:56:58.666Z,14.30
2022-10-25T17:59:28.423Z,19.37
2022-10-25T18:01:58.089Z,22.47
2022-10-25T18:04:26.559Z,14.57
2022-10-25T18:06:54.751Z,12.40
2022-10-25T18:09:22.874Z,22.10
2022-10-25T18:11:51.122Z,20.17
2022-10-25T18:14:19.373Z,13.33
2022-10-25T18:16:47.563Z,13.57
2022-10-25T18:19:17.346Z,9.87
2022-10-25T18:21:45.630Z,10.63
2022-10-25T18:24:14.673Z,18.47
2022-10-25T18:26:42.915Z,10.23
2022-10-25T18:29:11.164Z,12.83
2022-10-25T18:31:39.893Z,12.87
2022-10-25T18:34:08.139Z,7.83
2022-10-25T18:36:37.781Z,9.03
2022-10-25T18:39:06.083Z,8.10
2022-10-25T18:41:35.703Z,13.50
2022-10-25T18:44:04.042Z,12.87
2022-10-25T18:46:32.831Z,8.90
2022-10-25T18:49:01.248Z,7.47
2022-10-25T18:51:29.912Z,9.97
2022-10-25T18:54:01.248Z,9.30
2022-10-25T18:56:30.771Z,10.87
2022-10-25T18:59:00.017Z,10.87
2022-10-25T19:01:32.873Z,12.67
2022-10-25T19:04:02.233Z,9.63
2022-10-25T19:06:30.998Z,8.83
2022-10-25T19:09:00.921Z,9.17
2022-10-25T19:11:29.074Z,9.93
2022-10-25T19:13:57.580Z,9.93
2022-10-25T19:16:26.093Z,7.23
2022-10-25T19:18:54.250Z,12.47
2022-10-25T19:21:22.331Z,5.50
2022-10-25T19:23:54.209Z,8.20
2022-10-25T19:26:24.062Z,5.20
2022-10-25T19:28:57.263Z,3.10
2022-10-25T19:31:25.679Z,2.20
2022-10-25T19:33:56.297Z,3.20
2022-10-25T19:36:24.566Z,1.87
2022-10-25T19:38:52.806Z,3.53
2022-10-25T19:41:25.738Z,2.20
2022-10-25T19:43:56.416Z,4.77
2022-10-25T19:46:24.677Z,5.60
2022-10-25T19:48:52.938Z,2.73
2022-10-25T19:51:21.846Z,2.20
2022-10-25T19:53:50.257Z,1.53
2022-10-25T19:56:20.434Z,6.40
2022-10-25T19:58:51.266Z,3.23
2022-10-25T20:01:23.352Z,2.23
2022-10-25T20:03:54.575Z,2.50
2022-10-25T20:06:25.133Z,3.47
2022-10-25T20:08:54.232Z,3.97
2022-10-25T20:11:23.994Z,2.93
2022-10-25T20:13:56.338Z,1.83
2022-10-25T20:16:24.693Z,0.90
2022-10-25T20:18:53.173Z,3.03
2022-10-25T20:21:23.139Z,1.50
2022-10-25T20:23:55.797Z,3.43
2022-10-25T20:26:25.829Z,3.57
2022-10-25T20:28:56.535Z,6.83
2022-10-25T20:31:26.192Z,2.10
2022-10-25T20:33:55.863Z,4.43
2022-10-25T20:36:24.664Z,1.07
2022-10-25T20:38:53.232Z,4.33
2022-10-25T20:41:25.156Z,0.80
2022-10-25T20:43:56.716Z,1.57
2022-10-25T20:46:26.877Z,2.03
2022-10-25T20:48:55.183Z,2.00
2022-10-25T20:51:23.682Z,2.80
2022-10-25T20:53:52.030Z,0.70
2022-10-25T20:56:22.569Z,3.17
2022-10-25T20:58:51.109Z,0.70
2022-10-25T21:01:21.200Z,3.20
2022-10-25T21:03:49.364Z,0.77
2022-10-25T21:06:17.561Z,1.03
2022-10-25T21:08:45.743Z,4.90
2022-10-25T21:11:14.694Z,1.03
2022-10-25T21:13:43.082Z,2.80
2022-10-25T21:16:12.753Z,1.73
2022-10-25T21:18:43.065Z,1.27
2022-10-25T21:21:18.098Z,1.10
2022-10-25T21:23:46.374Z,2.20
2022-10-25T21:26:14.725Z,0.60
2022-10-25T21:28:43.009Z,3.60
2022-10-25T21:31:13.838Z,0.83
2022-10-25T21:33:49.876Z,2.33
2022-10-25T21:36:20.417Z,1.10
2022-10-25T21:38:48.786Z,1.50
2022-10-25T21:41:19.828Z,2.90
2022-10-25T21:43:49.901Z,0.87
2022-10-25T21:46:19.495Z,4.17
2022-10-25T21:48:50.837Z,2.10
2022-10-25T21:51:19.774Z,1.40
2022-10-25T21:53:48.372Z,4.33
2022-10-25T21:56:18.142Z,1.90
2022-10-25T21:58:47.924Z,2.40
2022-10-25T22:01:17.814Z,0.53
2022-10-25T22:03:46.274Z,2.87
2022-10-25T22:06:17.364Z,2.47
2022-10-25T22:08:45.937Z,2.10
2022-10-25T22:11:16.395Z,1.00
2022-10-25T22:13:45.082Z,7.90
2022-10-25T22:16:15.274Z,1.80
2022-10-25T22:18:44.894Z,0.77
2022-10-25T22:21:15.253Z,2.53
2022-10-25T22:23:43.359Z,1.43
2022-10-25T22:26:13.328Z,3.23
2022-10-25T22:28:41.779Z,2.60
2022-10-25T22:31:11.695Z,2.47
2022-10-25T22:33:40.244Z,6.83
2022-10-25T22:36:10.269Z,1.40
2022-10-25T22:38:40.370Z,0.87
2022-10-25T22:41:12.314Z,3.93
2022-10-25T22:43:41.253Z,3.13
2022-10-25T22:46:12.591Z,1.93
2022-10-25T22:48:42.466Z,3.00
2022-10-25T22:51:12.004Z,7.20
2022-10-25T22:53:42.097Z,1.17
2022-10-25T22:56:13.301Z,2.13
2022-10-25T22:58:42.830Z,0.70
2022-10-25T23:01:12.587Z,2.30
2022-10-25T23:03:41.981Z,2.93
2022-10-25T23:06:13.646Z,0.80
2022-10-25T23:08:43.480Z,0.73
2022-10-25T23:11:15.057Z,2.07
2022-10-25T23:13:43.738Z,1.53
2022-10-25T23:16:13.753Z,0.90
2022-10-25T23:18:42.098Z,0.90
2022-10-25T23:21:17.265Z,1.87
2022-10-25T23:23:47.512Z,5.17
2022-10-25T23:26:19.788Z,1.00
2022-10-25T23:28:48.330Z,3.67
2022-10-25T23:31:17.070Z,3.90
2022-10-25T23:33:46.111Z,0.83
2022-10-25T23:36:16.478Z,1.00
2022-10-25T23:38:46.500Z,1.83
2022-10-25T23:41:15.294Z,2.33
2022-10-25T23:43:43.538Z,0.97
2022-10-25T23:46:12.277Z,0.93
2022-10-25T23:48:40.696Z,1.87
2022-10-25T23:51:10.599Z,2.50
2022-10-25T23:53:39.294Z,1.57
2022-10-25T23:56:11.330Z,5.50
2022-10-25T23:58:39.664Z,1.20
